createdAt,value
2018-05-03T00:02:57.088Z,99.90
2018-05-03T00:07:30.294Z,99.90
2018-05-03T00:12:03.499Z,99.90
2018-05-03T00:16:36.669Z,99.90
2018-05-03T00:21:09.854Z,99.90
2018-05-03T00:25:43.043Z,99.90
2018-05-03T00:30:16.239Z,99.90
2018-05-03T00:34:49.428Z,99.90
2018-05-03T00:39:22.663Z,99.90
2018-05-03T00:43:55.837Z,99.90
2018-05-03T00:48:29.043Z,99.90
2018-05-03T00:53:02.232Z,99.90
2018-05-03T00:57:36.191Z,99.90
2018-05-03T01:02:09.395Z,99.90
2018-05-03T01:06:42.560Z,99.90
2018-05-03T01:11:16.519Z,99.90
2018-05-03T01:15:49.702Z,99.90
2018-05-03T01:20:23.654Z,99.90
2018-05-03T01:24:56.837Z,99.90
2018-05-03T01:29:30.815Z,99.90
2018-05-03T01:34:03.993Z,99.90
2018-05-03T01:38:37.182Z,99.90
2018-05-03T01:43:10.371Z,99.90
2018-05-03T01:47:44.322Z,99.90
2018-05-03T01:52:17.509Z,99.90
2018-05-03T01:56:51.451Z,99.90
2018-05-03T02:01:24.630Z,99.90
2018-05-03T02:05:58.580Z,99.90
2018-05-03T02:10:31.768Z,99.90
2018-05-03T02:15:05.730Z,99.90
2018-05-03T02:19:38.889Z,99.90
2018-05-03T02:24:12.842Z,99.90
2018-05-03T02:28:46.027Z,99.90
2018-05-03T02:33:19.970Z,99.90
2018-05-03T02:37:53.185Z,99.90
2018-05-03T02:42:26.380Z,99.90
2018-05-03T02:46:59.570Z,99.90
2018-05-03T02:51:33.503Z,99.90
2018-05-03T02:56:07.454Z,99.90
2018-05-03T03:00:58.220Z,99.90
2018-05-03T03:05:50.559Z,99.90
2018-05-03T03:10:42.119Z,99.90
2018-05-03T03:15:33.709Z,99.90
2018-05-03T03:25:45.242Z,99.90
2018-05-03T03:30:36.227Z,99.90
2018-05-03T03:40:38.747Z,99.90
2018-05-03T03:45:11.938Z,99.90
2018-05-03T03:49:45.122Z,99.90
2018-05-03T03:54:18.301Z,99.90
2018-05-03T03:58:51.482Z,99.90
2018-05-03T04:03:25.402Z,99.90
2018-05-03T04:07:59.359Z,99.90
2018-05-03T04:12:32.563Z,99.90
2018-05-03T04:17:05.758Z,99.90
2018-05-03T04:21:50.946Z,99.90
2018-05-03T04:26:24.134Z,99.90
2018-05-03T04:30:58.053Z,99.90
2018-05-03T04:35:32.018Z,99.90
2018-05-03T04:40:05.326Z,99.90
2018-05-03T04:44:38.512Z,99.90
2018-05-03T04:49:12.455Z,99.90
2018-05-03T04:53:45.772Z,99.90
2018-05-03T04:58:18.947Z,99.90
2018-05-03T05:02:52.890Z,99.90
2018-05-03T05:07:26.106Z,99.90
2018-05-03T05:11:59.273Z,99.90
2018-05-03T05:16:33.235Z,99.90
2018-05-03T05:21:06.418Z,99.90
2018-05-03T05:25:39.611Z,99.90
2018-05-03T05:30:13.533Z,99.90
2018-05-03T05:34:47.486Z,99.90
2018-05-03T05:44:00.251Z,99.90
2018-05-03T05:48:33.513Z,99.90
2018-05-03T05:53:06.697Z,99.90
2018-05-03T05:57:39.885Z,99.90
2018-05-03T06:02:13.060Z,99.90
2018-05-03T06:06:46.624Z,99.90
2018-05-03T06:11:19.821Z,99.90
2018-05-03T06:15:53.019Z,99.90
2018-05-03T06:20:26.211Z,99.90
2018-05-03T06:24:59.413Z,99.90
2018-05-03T06:29:32.589Z,99.90
2018-05-03T06:34:05.798Z,99.90
2018-05-03T06:38:39.774Z,99.90
2018-05-03T06:43:12.962Z,99.90
2018-05-03T06:47:46.201Z,99.90
2018-05-03T06:52:19.430Z,99.90
2018-05-03T06:56:52.607Z,99.90
2018-05-03T07:01:25.811Z,99.90
2018-05-03T07:05:58.983Z,99.90
2018-05-03T07:10:32.374Z,99.60
2018-05-03T07:15:06.331Z,95.90
2018-05-03T07:19:39.525Z,95.80
2018-05-03T07:24:12.716Z,93.70
2018-05-03T07:28:46.667Z,93.00
2018-05-03T07:33:19.858Z,92.90
2018-05-03T07:37:53.240Z,92.10
2018-05-03T07:42:26.261Z,92.50
2018-05-03T07:47:00.272Z,90.50
2018-05-03T07:51:34.227Z,85.20
2018-05-03T07:56:07.431Z,85.10
2018-05-03T08:00:40.650Z,85.00
2018-05-03T08:05:13.818Z,84.50
2018-05-03T08:09:47.770Z,73.30
2018-05-03T08:14:20.963Z,73.10
2018-05-03T08:18:54.934Z,64.90
2018-05-03T08:23:28.186Z,64.80
2018-05-03T08:28:01.426Z,61.70
2018-05-03T08:32:34.609Z,53.10
2018-05-03T08:37:08.579Z,50.90
2018-05-03T08:41:41.779Z,50.90
2018-05-03T08:46:15.036Z,53.30
2018-05-03T08:50:48.986Z,53.40
2018-05-03T08:55:22.173Z,53.30
2018-05-03T08:59:56.126Z,60.40
2018-05-03T09:04:29.315Z,60.30
2018-05-03T09:09:03.034Z,65.90
2018-05-03T09:13:37.048Z,75.60
2018-05-03T09:18:10.302Z,75.50
2018-05-03T09:22:43.487Z,78.20
2018-05-03T09:27:16.682Z,81.20
2018-05-03T09:31:49.841Z,83.00
2018-05-03T09:36:23.078Z,80.20
2018-05-03T09:40:57.028Z,80.20
2018-05-03T09:45:30.210Z,80.80
2018-05-03T09:50:04.194Z,69.00
2018-05-03T09:54:37.358Z,68.20
2018-05-03T09:59:10.565Z,61.20
2018-05-03T10:03:43.757Z,56.30
2018-05-03T10:08:17.744Z,61.20
2018-05-03T10:12:50.921Z,61.20
2018-05-03T10:17:24.105Z,64.00
2018-05-03T10:21:57.291Z,64.90
2018-05-03T10:26:31.250Z,73.30
2018-05-03T10:31:04.433Z,72.50
2018-05-03T10:35:38.458Z,77.50
2018-05-03T10:40:11.573Z,76.70
2018-05-03T10:44:44.755Z,74.40
2018-05-03T10:49:17.941Z,70.80
2018-05-03T10:53:51.126Z,73.40
2018-05-03T10:58:24.322Z,74.80
2018-05-03T11:02:57.485Z,77.40
2018-05-03T11:07:31.467Z,78.80
2018-05-03T11:12:04.654Z,78.70
2018-05-03T11:16:37.903Z,80.60
2018-05-03T11:21:11.350Z,78.00
2018-05-03T11:25:44.546Z,73.20
2018-05-03T11:30:18.495Z,56.40
2018-05-03T11:34:51.684Z,56.20
2018-05-03T11:39:25.703Z,56.30
2018-05-03T11:43:59.645Z,62.50
2018-05-03T11:48:32.830Z,62.40
2018-05-03T11:53:07.391Z,66.40
2018-05-03T11:57:40.613Z,66.80
2018-05-03T12:02:13.839Z,70.80
2018-05-03T12:06:47.026Z,69.60
2018-05-03T12:11:20.214Z,60.00
2018-05-03T12:15:53.414Z,54.10
2018-05-03T12:20:27.406Z,52.10
2018-05-03T12:25:00.597Z,52.10
2018-05-03T12:29:33.838Z,56.20
2018-05-03T12:34:07.029Z,62.00
2018-05-03T12:38:40.999Z,65.10
2018-05-03T12:43:14.186Z,65.00
2018-05-03T12:47:48.143Z,62.00
2018-05-03T12:52:21.333Z,61.90
2018-05-03T12:56:54.527Z,58.50
2018-05-03T13:01:28.478Z,56.80
2018-05-03T13:06:01.681Z,56.70
2018-05-03T13:10:34.949Z,57.70
2018-05-03T13:15:08.144Z,61.70
2018-05-03T13:19:49.066Z,66.70
2018-05-03T13:24:24.192Z,69.80
2018-05-03T13:28:57.454Z,69.70
2018-05-03T13:33:30.618Z,69.60
2018-05-03T13:38:04.547Z,68.60
2018-05-03T13:42:39.444Z,67.80
2018-05-03T13:47:12.627Z,67.00
2018-05-03T13:51:45.830Z,65.50
2018-05-03T13:56:19.001Z,64.90
2018-05-03T14:00:52.985Z,61.80
2018-05-03T14:05:26.198Z,61.80
2018-05-03T14:09:59.353Z,63.00
2018-05-03T14:14:32.542Z,62.50
2018-05-03T14:19:06.489Z,60.40
2018-05-03T14:23:39.672Z,60.00
2018-05-03T14:28:12.853Z,59.00
2018-05-03T14:32:46.038Z,58.40
2018-05-03T14:37:19.246Z,57.10
2018-05-03T14:41:52.482Z,55.90
2018-05-03T14:46:25.676Z,56.60
2018-05-03T14:50:58.859Z,57.80
2018-05-03T14:55:32.102Z,57.30
2018-05-03T15:00:05.319Z,56.50
2018-05-03T15:04:38.510Z,55.30
2018-05-03T15:09:11.690Z,55.40
2018-05-03T15:13:45.086Z,54.10
2018-05-03T15:18:18.307Z,53.80
2018-05-03T15:22:51.468Z,53.90
2018-05-03T15:27:25.418Z,57.20
2018-05-03T15:31:58.599Z,57.10
2018-05-03T15:36:32.559Z,55.70
2018-05-03T15:41:05.752Z,55.60
2018-05-03T15:45:39.098Z,56.00
2018-05-03T15:50:12.304Z,57.00
2018-05-03T15:54:45.543Z,58.10
2018-05-03T15:59:18.876Z,58.40
2018-05-03T16:03:52.826Z,59.20
2018-05-03T16:08:26.192Z,59.10
2018-05-03T16:13:00.453Z,59.30
2018-05-03T16:17:33.633Z,59.20
2018-05-03T16:22:07.673Z,56.70
2018-05-03T16:26:41.622Z,53.70
2018-05-03T16:31:15.634Z,53.60
2018-05-03T16:35:48.920Z,55.10
2018-05-03T16:40:22.966Z,54.60
2018-05-03T16:44:56.118Z,54.60
2018-05-03T16:49:29.302Z,55.20
2018-05-03T16:54:02.563Z,55.30
2018-05-03T16:58:36.513Z,54.40
2018-05-03T17:03:09.794Z,54.30
2018-05-03T17:07:43.842Z,56.30
2018-05-03T17:12:17.020Z,56.20
2018-05-03T17:16:50.456Z,56.60
2018-05-03T17:21:24.456Z,57.30
2018-05-03T17:25:57.592Z,57.30
2018-05-03T17:30:30.779Z,57.10
2018-05-03T17:35:04.734Z,59.30
2018-05-03T17:39:37.926Z,59.30
2018-05-03T17:44:11.120Z,59.10
2018-05-03T17:48:45.074Z,62.10
2018-05-03T17:53:18.256Z,62.10
2018-05-03T17:57:52.182Z,62.70
2018-05-03T18:02:26.147Z,64.00
2018-05-03T18:06:59.450Z,63.90
2018-05-03T18:11:32.616Z,63.20
2018-05-03T18:16:05.839Z,63.60
2018-05-03T18:20:39.063Z,65.00
2018-05-03T18:25:12.418Z,65.10
2018-05-03T18:29:45.612Z,66.20
2018-05-03T18:34:18.813Z,66.30
2018-05-03T18:38:52.175Z,66.50
2018-05-03T18:43:25.686Z,66.40
2018-05-03T18:47:58.886Z,66.60
2018-05-03T18:52:33.121Z,66.50
2018-05-03T18:57:07.075Z,66.80
2018-05-03T19:01:40.270Z,66.80
2018-05-03T19:06:13.494Z,66.70
2018-05-03T19:10:46.700Z,66.60
2018-05-03T19:15:19.877Z,66.40
2018-05-03T19:19:53.066Z,66.40
2018-05-03T19:24:27.021Z,66.40
2018-05-03T19:29:01.047Z,66.30
2018-05-03T19:33:34.248Z,67.00
2018-05-03T19:38:07.411Z,66.90
2018-05-03T19:42:40.597Z,67.30
2018-05-03T19:47:13.783Z,67.90
2018-05-03T19:51:47.054Z,68.50
2018-05-03T19:56:20.994Z,69.40
2018-05-03T20:00:54.274Z,69.20
2018-05-03T20:05:27.473Z,69.80
2018-05-03T20:10:01.482Z,70.30
2018-05-03T20:14:34.791Z,70.30
2018-05-03T20:19:08.135Z,71.00
2018-05-03T20:23:42.459Z,71.20
2018-05-03T20:28:16.141Z,71.20
2018-05-03T20:32:49.517Z,71.40
2018-05-03T20:37:22.644Z,71.90
2018-05-03T20:41:56.493Z,72.00
2018-05-03T20:46:29.758Z,72.50
2018-05-03T20:51:03.001Z,72.60
2018-05-03T20:55:37.641Z,72.80
2018-05-03T21:00:10.828Z,72.80
2018-05-03T21:04:44.205Z,73.00
2018-05-03T21:09:18.153Z,74.20
2018-05-03T21:13:51.341Z,74.10
2018-05-03T21:18:24.541Z,74.60
2018-05-03T21:22:58.536Z,75.80
2018-05-03T21:27:31.722Z,75.70
2018-05-03T21:32:04.963Z,75.40
2018-05-03T21:36:39.986Z,76.80
2018-05-03T21:41:13.145Z,76.10
2018-05-03T21:45:46.441Z,76.60
2018-05-03T21:50:21.344Z,78.10
2018-05-03T21:54:54.525Z,78.00
2018-05-03T21:59:28.578Z,78.10
2018-05-03T22:04:01.765Z,78.20
2018-05-03T22:08:36.073Z,79.80
2018-05-03T22:13:09.229Z,80.20
2018-05-03T22:17:42.413Z,82.10
2018-05-03T22:22:15.684Z,81.50
2018-05-03T22:26:48.873Z,84.70
2018-05-03T22:31:23.683Z,90.20
2018-05-03T22:35:57.024Z,90.20
2018-05-03T22:40:30.255Z,91.70
2018-05-03T22:45:03.446Z,92.90
2018-05-03T22:49:37.673Z,93.50
2018-05-03T22:54:12.333Z,93.80
2018-05-03T22:58:45.587Z,93.70
2018-05-03T23:03:18.907Z,93.10
2018-05-03T23:07:52.205Z,94.10
2018-05-03T23:12:26.193Z,95.80
2018-05-03T23:16:59.394Z,95.50
2018-05-03T23:21:32.666Z,95.70
2018-05-03T23:26:05.859Z,96.00
2018-05-03T23:30:39.050Z,96.10
2018-05-03T23:35:12.238Z,96.30
2018-05-03T23:39:45.433Z,96.70
2018-05-03T23:44:18.634Z,96.40
2018-05-03T23:48:51.941Z,96.80
2018-05-03T23:53:25.142Z,96.90
2018-05-03T23:58:02.742Z,97.50
